sensor_id;sensor_type;location;lat;lon;timestamp;P1;durP1;ratioP1;P2;durP2;ratioP2
60032;SDS011;45905;50.570;10.428;2023-05-25T00:01:44;14.63;;;3.93;;
60032;SDS011;45905;50.570;10.428;2023-05-25T00:04:14;10.10;;;4.77;;
60032;SDS011;45905;50.570;10.428;2023-05-25T00:06:45;2.77;;;1.60;;
60032;SDS011;45905;50.570;10.428;2023-05-25T00:09:13;5.10;;;4.43;;
60032;SDS011;45905;50.570;10.428;2023-05-25T00:11:40;4.30;;;3.90;;
60032;SDS011;45905;50.570;10.428;2023-05-25T00:14:08;2.50;;;2.30;;
60032;SDS011;45905;50.570;10.428;2023-05-25T00:16:35;2.97;;;2.77;;
60032;SDS011;45905;50.570;10.428;2023-05-25T00:19:06;3.10;;;2.57;;
60032;SDS011;45905;50.570;10.428;2023-05-25T00:21:36;3.03;;;2.70;;
60032;SDS011;45905;50.570;10.428;2023-05-25T00:24:05;2.60;;;2.40;;
60032;SDS011;45905;50.570;10.428;2023-05-25T00:26:34;4.00;;;1.93;;
60032;SDS011;45905;50.570;10.428;2023-05-25T00:29:02;4.10;;;2.40;;
60032;SDS011;45905;50.570;10.428;2023-05-25T00:31:30;3.30;;;3.00;;
60032;SDS011;45905;50.570;10.428;2023-05-25T00:34:01;1.60;;;1.50;;
60032;SDS011;45905;50.570;10.428;2023-05-25T00:36:28;4.87;;;3.30;;
60032;SDS011;45905;50.570;10.428;2023-05-25T00:38:56;5.90;;;3.87;;
60032;SDS011;45905;50.570;10.428;2023-05-25T00:41:23;1.60;;;1.50;;
60032;SDS011;45905;50.570;10.428;2023-05-25T00:43:54;4.10;;;2.73;;
60032;SDS011;45905;50.570;10.428;2023-05-25T00:46:22;7.80;;;2.30;;
60032;SDS011;45905;50.570;10.428;2023-05-25T00:48:51;2.80;;;1.40;;
60032;SDS011;45905;50.570;10.428;2023-05-25T00:51:21;2.63;;;2.10;;
60032;SDS011;45905;50.570;10.428;2023-05-25T00:53:49;6.50;;;2.80;;
60032;SDS011;45905;50.570;10.428;2023-05-25T00:56:23;3.70;;;2.03;;
60032;SDS011;45905;50.570;10.428;2023-05-25T00:58:55;1.50;;;0.80;;
60032;SDS011;45905;50.570;10.428;2023-05-25T01:01:29;2.20;;;2.00;;
60032;SDS011;45905;50.570;10.428;2023-05-25T01:04:08;3.37;;;2.20;;
60032;SDS011;45905;50.570;10.428;2023-05-25T01:06:41;4.10;;;2.10;;
60032;SDS011;45905;50.570;10.428;2023-05-25T01:09:15;24.07;;;2.33;;
60032;SDS011;45905;50.570;10.428;2023-05-25T01:11:45;6.70;;;1.80;;
60032;SDS011;45905;50.570;10.428;2023-05-25T01:14:17;2.20;;;2.00;;
60032;SDS011;45905;50.570;10.428;2023-05-25T01:16:50;1.77;;;1.43;;
60032;SDS011;45905;50.570;10.428;2023-05-25T01:19:18;1.90;;;1.80;;
60032;SDS011;45905;50.570;10.428;2023-05-25T01:21:50;5.47;;;1.37;;
60032;SDS011;45905;50.570;10.428;2023-05-25T01:24:37;2.27;;;1.60;;
60032;SDS011;45905;50.570;10.428;2023-05-25T01:30:19;2.40;;;1.23;;
60032;SDS011;45905;50.570;10.428;2023-05-25T01:32:52;1.60;;;1.50;;
60032;SDS011;45905;50.570;10.428;2023-05-25T01:35:21;14.90;;;1.87;;
60032;SDS011;45905;50.570;10.428;2023-05-25T01:37:50;1.20;;;1.10;;
60032;SDS011;45905;50.570;10.428;2023-05-25T01:40:19;17.27;;;2.10;;
60032;SDS011;45905;50.570;10.428;2023-05-25T01:42:46;4.43;;;1.87;;
60032;SDS011;45905;50.570;10.428;2023-05-25T01:45:14;1.67;;;0.80;;
60032;SDS011;45905;50.570;10.428;2023-05-25T01:47:49;3.73;;;2.33;;
60032;SDS011;45905;50.570;10.428;2023-05-25T01:53:37;5.13;;;2.43;;
60032;SDS011;45905;50.570;10.428;2023-05-25T01:56:10;4.07;;;2.00;;
60032;SDS011;45905;50.570;10.428;2023-05-25T01:58:41;2.70;;;2.00;;
60032;SDS011;45905;50.570;10.428;2023-05-25T02:01:13;3.77;;;2.10;;
60032;SDS011;45905;50.570;10.428;2023-05-25T02:03:45;3.13;;;1.63;;
60032;SDS011;45905;50.570;10.428;2023-05-25T02:06:15;12.90;;;1.60;;
60032;SDS011;45905;50.570;10.428;2023-05-25T02:08:42;4.67;;;2.27;;
60032;SDS011;45905;50.570;10.428;2023-05-25T02:11:11;5.93;;;2.13;;
60032;SDS011;45905;50.570;10.428;2023-05-25T02:13:40;4.53;;;2.80;;
60032;SDS011;45905;50.570;10.428;2023-05-25T02:16:07;1.97;;;1.47;;
60032;SDS011;45905;50.570;10.428;2023-05-25T02:18:35;3.10;;;2.90;;
60032;SDS011;45905;50.570;10.428;2023-05-25T02:21:02;5.50;;;2.60;;
60032;SDS011;45905;50.570;10.428;2023-05-25T02:23:30;1.77;;;1.23;;
60032;SDS011;45905;50.570;10.428;2023-05-25T02:25:57;6.43;;;1.57;;
60032;SDS011;45905;50.570;10.428;2023-05-25T02:28:24;1.37;;;1.27;;
60032;SDS011;45905;50.570;10.428;2023-05-25T02:30:51;1.73;;;1.57;;
60032;SDS011;45905;50.570;10.428;2023-05-25T02:33:19;6.80;;;1.83;;
60032;SDS011;45905;50.570;10.428;2023-05-25T02:35:46;2.03;;;1.50;;
60032;SDS011;45905;50.570;10.428;2023-05-25T02:38:13;2.53;;;1.23;;
60032;SDS011;45905;50.570;10.428;2023-05-25T02:40:40;4.20;;;1.43;;
60032;SDS011;45905;50.570;10.428;2023-05-25T02:43:07;2.10;;;1.60;;
60032;SDS011;45905;50.570;10.428;2023-05-25T02:45:36;1.00;;;0.80;;
60032;SDS011;45905;50.570;10.428;2023-05-25T02:48:04;9.23;;;1.57;;
60032;SDS011;45905;50.570;10.428;2023-05-25T02:50:32;1.50;;;1.00;;
60032;SDS011;45905;50.570;10.428;2023-05-25T02:53:03;3.03;;;1.57;;
60032;SDS011;45905;50.570;10.428;2023-05-25T02:55:30;8.00;;;2.90;;
60032;SDS011;45905;50.570;10.428;2023-05-25T02:57:58;3.20;;;2.30;;
60032;SDS011;45905;50.570;10.428;2023-05-25T03:00:44;3.70;;;1.13;;
60032;SDS011;45905;50.570;10.428;2023-05-25T03:03:13;3.90;;;1.77;;
60032;SDS011;45905;50.570;10.428;2023-05-25T03:05:40;1.27;;;1.10;;
60032;SDS011;45905;50.570;10.428;2023-05-25T03:08:08;1.33;;;1.00;;
60032;SDS011;45905;50.570;10.428;2023-05-25T03:10:35;5.70;;;1.60;;
60032;SDS011;45905;50.570;10.428;2023-05-25T03:13:06;5.63;;;1.17;;
60032;SDS011;45905;50.570;10.428;2023-05-25T03:15:33;5.60;;;2.50;;
60032;SDS011;45905;50.570;10.428;2023-05-25T03:18:02;2.50;;;2.30;;
60032;SDS011;45905;50.570;10.428;2023-05-25T03:20:33;1.07;;;0.97;;
60032;SDS011;45905;50.570;10.428;2023-05-25T03:23:01;2.50;;;1.43;;
60032;SDS011;45905;50.570;10.428;2023-05-25T03:25:28;3.93;;;2.10;;
60032;SDS011;45905;50.570;10.428;2023-05-25T03:27:57;3.63;;;2.30;;
60032;SDS011;45905;50.570;10.428;2023-05-25T03:30:24;5.17;;;1.97;;
60032;SDS011;45905;50.570;10.428;2023-05-25T03:32:51;3.13;;;1.67;;
60032;SDS011;45905;50.570;10.428;2023-05-25T03:35:19;2.40;;;2.13;;
60032;SDS011;45905;50.570;10.428;2023-05-25T03:37:46;3.77;;;1.70;;
60032;SDS011;45905;50.570;10.428;2023-05-25T03:40:14;3.73;;;2.00;;
60032;SDS011;45905;50.570;10.428;2023-05-25T03:42:41;1.47;;;1.30;;
60032;SDS011;45905;50.570;10.428;2023-05-25T03:45:08;4.63;;;1.40;;
60032;SDS011;45905;50.570;10.428;2023-05-25T03:47:39;1.60;;;1.30;;
60032;SDS011;45905;50.570;10.428;2023-05-25T03:50:07;1.50;;;1.40;;
60032;SDS011;45905;50.570;10.428;2023-05-25T03:52:34;5.80;;;1.77;;
60032;SDS011;45905;50.570;10.428;2023-05-25T03:55:01;3.57;;;2.10;;
60032;SDS011;45905;50.570;10.428;2023-05-25T03:57:30;2.83;;;2.10;;
60032;SDS011;45905;50.570;10.428;2023-05-25T03:59:57;3.60;;;1.57;;
60032;SDS011;45905;50.570;10.428;2023-05-25T04:02:24;1.83;;;1.00;;
60032;SDS011;45905;50.570;10.428;2023-05-25T04:04:53;3.27;;;1.47;;
60032;SDS011;45905;50.570;10.428;2023-05-25T04:07:24;6.87;;;1.40;;
60032;SDS011;45905;50.570;10.428;2023-05-25T04:09:52;2.17;;;1.50;;
60032;SDS011;45905;50.570;10.428;2023-05-25T04:12:19;3.80;;;1.77;;
60032;SDS011;45905;50.570;10.428;2023-05-25T04:14:47;4.50;;;3.23;;
60032;SDS011;45905;50.570;10.428;2023-05-25T04:17:15;1.50;;;1.00;;
60032;SDS011;45905;50.570;10.428;2023-05-25T04:19:44;1.83;;;1.47;;
60032;SDS011;45905;50.570;10.428;2023-05-25T04:22:11;3.93;;;1.13;;
60032;SDS011;45905;50.570;10.428;2023-05-25T04:24:40;6.07;;;2.13;;
60032;SDS011;45905;50.570;10.428;2023-05-25T04:27:07;2.43;;;1.80;;
60032;SDS011;45905;50.570;10.428;2023-05-25T04:29:35;2.90;;;1.73;;
60032;SDS011;45905;50.570;10.428;2023-05-25T04:32:17;3.00;;;2.13;;
60032;SDS011;45905;50.570;10.428;2023-05-25T04:34:49;3.03;;;2.33;;
60032;SDS011;45905;50.570;10.428;2023-05-25T04:37:23;7.60;;;3.13;;
60032;SDS011;45905;50.570;10.428;2023-05-25T04:39:56;3.47;;;2.97;;
60032;SDS011;45905;50.570;10.428;2023-05-25T04:42:24;11.27;;;3.67;;
60032;SDS011;45905;50.570;10.428;2023-05-25T04:44:53;3.93;;;1.67;;
60032;SDS011;45905;50.570;10.428;2023-05-25T04:47:24;2.83;;;1.57;;
60032;SDS011;45905;50.570;10.428;2023-05-25T04:49:52;1.33;;;1.23;;
60032;SDS011;45905;50.570;10.428;2023-05-25T04:52:21;11.10;;;2.57;;
60032;SDS011;45905;50.570;10.428;2023-05-25T04:54:48;2.03;;;1.90;;
60032;SDS011;45905;50.570;10.428;2023-05-25T04:57:16;2.20;;;2.03;;
60032;SDS011;45905;50.570;10.428;2023-05-25T04:59:45;3.33;;;2.30;;
60032;SDS011;45905;50.570;10.428;2023-05-25T05:02:12;3.53;;;2.67;;
60032;SDS011;45905;50.570;10.428;2023-05-25T05:04:39;5.53;;;3.93;;
60032;SDS011;45905;50.570;10.428;2023-05-25T05:07:07;2.57;;;2.23;;
60032;SDS011;45905;50.570;10.428;2023-05-25T05:09:36;1.73;;;1.33;;
60032;SDS011;45905;50.570;10.428;2023-05-25T05:12:03;2.57;;;1.60;;
60032;SDS011;45905;50.570;10.428;2023-05-25T05:14:36;2.43;;;2.20;;
60032;SDS011;45905;50.570;10.428;2023-05-25T05:17:03;6.97;;;2.47;;
60032;SDS011;45905;50.570;10.428;2023-05-25T05:19:31;4.80;;;2.50;;
60032;SDS011;45905;50.570;10.428;2023-05-25T05:21:58;4.50;;;2.53;;
60032;SDS011;45905;50.570;10.428;2023-05-25T05:24:26;4.07;;;2.00;;
60032;SDS011;45905;50.570;10.428;2023-05-25T05:26:53;2.07;;;1.50;;
60032;SDS011;45905;50.570;10.428;2023-05-25T05:29:28;5.13;;;4.00;;
60032;SDS011;45905;50.570;10.428;2023-05-25T05:31:56;16.70;;;4.10;;
60032;SDS011;45905;50.570;10.428;2023-05-25T05:34:23;2.20;;;1.70;;
60032;SDS011;45905;50.570;10.428;2023-05-25T05:36:51;2.90;;;1.93;;
60032;SDS011;45905;50.570;10.428;2023-05-25T05:39:24;3.23;;;2.10;;
60032;SDS011;45905;50.570;10.428;2023-05-25T05:41:52;6.00;;;2.60;;
60032;SDS011;45905;50.570;10.428;2023-05-25T05:44:21;5.00;;;2.63;;
60032;SDS011;45905;50.570;10.428;2023-05-25T05:46:52;3.50;;;2.67;;
60032;SDS011;45905;50.570;10.428;2023-05-25T05:49:27;2.97;;;2.27;;
60032;SDS011;45905;50.570;10.428;2023-05-25T05:51:56;4.07;;;2.53;;
60032;SDS011;45905;50.570;10.428;2023-05-25T05:54:24;3.50;;;2.70;;
60032;SDS011;45905;50.570;10.428;2023-05-25T05:56:54;2.60;;;2.13;;
60032;SDS011;45905;50.570;10.428;2023-05-25T05:59:21;3.00;;;2.70;;
60032;SDS011;45905;50.570;10.428;2023-05-25T06:01:49;4.17;;;1.80;;
60032;SDS011;45905;50.570;10.428;2023-05-25T06:04:17;4.07;;;2.70;;
60032;SDS011;45905;50.570;10.428;2023-05-25T06:06:44;5.47;;;2.80;;
60032;SDS011;45905;50.570;10.428;2023-05-25T06:09:12;3.23;;;2.97;;
60032;SDS011;45905;50.570;10.428;2023-05-25T06:11:39;5.00;;;2.60;;
60032;SDS011;45905;50.570;10.428;2023-05-25T06:14:07;29.60;;;3.40;;
60032;SDS011;45905;50.570;10.428;2023-05-25T06:16:36;6.00;;;3.33;;
60032;SDS011;45905;50.570;10.428;2023-05-25T06:19:03;5.57;;;2.67;;
60032;SDS011;45905;50.570;10.428;2023-05-25T06:21:30;2.07;;;1.97;;
60032;SDS011;45905;50.570;10.428;2023-05-25T06:23:57;3.60;;;2.50;;
60032;SDS011;45905;50.570;10.428;2023-05-25T06:26:24;5.13;;;2.37;;
60032;SDS011;45905;50.570;10.428;2023-05-25T06:28:53;7.00;;;3.93;;
60032;SDS011;45905;50.570;10.428;2023-05-25T06:31:20;3.53;;;2.83;;
60032;SDS011;45905;50.570;10.428;2023-05-25T06:33:47;3.63;;;2.60;;
60032;SDS011;45905;50.570;10.428;2023-05-25T06:36:14;13.30;;;2.73;;
60032;SDS011;45905;50.570;10.428;2023-05-25T06:38:43;2.70;;;2.37;;
60032;SDS011;45905;50.570;10.428;2023-05-25T06:41:10;4.43;;;2.77;;
60032;SDS011;45905;50.570;10.428;2023-05-25T06:43:41;6.20;;;3.37;;
60032;SDS011;45905;50.570;10.428;2023-05-25T06:46:14;4.10;;;2.57;;
60032;SDS011;45905;50.570;10.428;2023-05-25T06:48:44;3.90;;;2.67;;
60032;SDS011;45905;50.570;10.428;2023-05-25T06:51:12;7.90;;;3.60;;
60032;SDS011;45905;50.570;10.428;2023-05-25T06:53:39;11.50;;;4.03;;
60032;SDS011;45905;50.570;10.428;2023-05-25T06:56:06;4.57;;;2.33;;
60032;SDS011;45905;50.570;10.428;2023-05-25T06:58:33;3.40;;;2.63;;
60032;SDS011;45905;50.570;10.428;2023-05-25T07:01:01;9.93;;;3.57;;
60032;SDS011;45905;50.570;10.428;2023-05-25T07:03:28;3.27;;;2.33;;
60032;SDS011;45905;50.570;10.428;2023-05-25T07:05:55;8.77;;;3.83;;
60032;SDS011;45905;50.570;10.428;2023-05-25T07:08:23;10.73;;;4.40;;
60032;SDS011;45905;50.570;10.428;2023-05-25T07:10:51;6.23;;;2.47;;
60032;SDS011;45905;50.570;10.428;2023-05-25T07:13:18;6.80;;;2.80;;
60032;SDS011;45905;50.570;10.428;2023-05-25T07:15:45;6.53;;;3.23;;
60032;SDS011;45905;50.570;10.428;2023-05-25T07:18:13;7.37;;;3.00;;
60032;SDS011;45905;50.570;10.428;2023-05-25T07:20:40;7.90;;;2.87;;
60032;SDS011;45905;50.570;10.428;2023-05-25T07:23:10;10.90;;;3.20;;
60032;SDS011;45905;50.570;10.428;2023-05-25T07:25:37;6.60;;;2.97;;
60032;SDS011;45905;50.570;10.428;2023-05-25T07:28:06;3.97;;;2.83;;
60032;SDS011;45905;50.570;10.428;2023-05-25T07:30:34;3.87;;;2.93;;
60032;SDS011;45905;50.570;10.428;2023-05-25T07:33:01;3.77;;;2.60;;
60032;SDS011;45905;50.570;10.428;2023-05-25T07:35:29;6.40;;;4.00;;
60032;SDS011;45905;50.570;10.428;2023-05-25T07:38:00;5.63;;;2.20;;
60032;SDS011;45905;50.570;10.428;2023-05-25T07:40:32;14.50;;;3.70;;
60032;SDS011;45905;50.570;10.428;2023-05-25T07:42:59;2.80;;;1.67;;
60032;SDS011;45905;50.570;10.428;2023-05-25T07:45:26;4.13;;;2.47;;
60032;SDS011;45905;50.570;10.428;2023-05-25T07:47:53;9.40;;;3.00;;
60032;SDS011;45905;50.570;10.428;2023-05-25T07:50:20;2.97;;;2.10;;
60032;SDS011;45905;50.570;10.428;2023-05-25T07:52:49;3.50;;;2.50;;
60032;SDS011;45905;50.570;10.428;2023-05-25T07:55:16;7.83;;;3.10;;
60032;SDS011;45905;50.570;10.428;2023-05-25T07:57:45;5.23;;;2.30;;
60032;SDS011;45905;50.570;10.428;2023-05-25T08:00:12;2.90;;;2.13;;
60032;SDS011;45905;50.570;10.428;2023-05-25T08:02:40;11.50;;;2.33;;
60032;SDS011;45905;50.570;10.428;2023-05-25T08:05:07;6.53;;;2.63;;
60032;SDS011;45905;50.570;10.428;2023-05-25T08:07:36;9.13;;;2.27;;
60032;SDS011;45905;50.570;10.428;2023-05-25T08:10:07;6.97;;;2.60;;
60032;SDS011;45905;50.570;10.428;2023-05-25T08:12:35;4.43;;;2.77;;
60032;SDS011;45905;50.570;10.428;2023-05-25T08:15:14;3.93;;;3.30;;
60032;SDS011;45905;50.570;10.428;2023-05-25T08:17:42;3.43;;;2.07;;
60032;SDS011;45905;50.570;10.428;2023-05-25T08:20:10;4.40;;;2.73;;
60032;SDS011;45905;50.570;10.428;2023-05-25T08:22:37;6.90;;;3.30;;
60032;SDS011;45905;50.570;10.428;2023-05-25T08:25:05;3.83;;;3.10;;
60032;SDS011;45905;50.570;10.428;2023-05-25T08:27:33;7.53;;;2.60;;
60032;SDS011;45905;50.570;10.428;2023-05-25T08:30:02;8.50;;;3.10;;
60032;SDS011;45905;50.570;10.428;2023-05-25T08:32:31;5.13;;;4.13;;
60032;SDS011;45905;50.570;10.428;2023-05-25T08:34:59;11.93;;;4.63;;
60032;SDS011;45905;50.570;10.428;2023-05-25T08:37:30;23.00;;;8.33;;
60032;SDS011;45905;50.570;10.428;2023-05-25T08:39:57;15.50;;;6.00;;
60032;SDS011;45905;50.570;10.428;2023-05-25T08:42:27;17.73;;;5.63;;
60032;SDS011;45905;50.570;10.428;2023-05-25T08:44:55;29.57;;;8.63;;
60032;SDS011;45905;50.570;10.428;2023-05-25T08:47:24;11.40;;;5.17;;
60032;SDS011;45905;50.570;10.428;2023-05-25T08:49:59;10.00;;;3.20;;
60032;SDS011;45905;50.570;10.428;2023-05-25T08:52:29;6.23;;;3.43;;
60032;SDS011;45905;50.570;10.428;2023-05-25T08:55:01;6.03;;;3.30;;
60032;SDS011;45905;50.570;10.428;2023-05-25T09:00:31;10.17;;;5.90;;
60032;SDS011;45905;50.570;10.428;2023-05-25T09:05:35;6.13;;;3.63;;
60032;SDS011;45905;50.570;10.428;2023-05-25T09:08:06;5.57;;;3.67;;
60032;SDS011;45905;50.570;10.428;2023-05-25T09:10:35;16.63;;;6.60;;
60032;SDS011;45905;50.570;10.428;2023-05-25T09:13:04;3.70;;;3.10;;
60032;SDS011;45905;50.570;10.428;2023-05-25T09:15:48;13.80;;;5.60;;
60032;SDS011;45905;50.570;10.428;2023-05-25T09:18:16;7.10;;;3.83;;
60032;SDS011;45905;50.570;10.428;2023-05-25T09:20:43;26.37;;;9.10;;
60032;SDS011;45905;50.570;10.428;2023-05-25T09:23:13;23.33;;;6.37;;
60032;SDS011;45905;50.570;10.428;2023-05-25T09:25:41;8.80;;;4.27;;
60032;SDS011;45905;50.570;10.428;2023-05-25T09:28:11;7.80;;;4.67;;
60032;SDS011;45905;50.570;10.428;2023-05-25T09:30:52;11.33;;;5.40;;
60032;SDS011;45905;50.570;10.428;2023-05-25T09:33:20;10.67;;;4.73;;
60032;SDS011;45905;50.570;10.428;2023-05-25T09:35:48;16.13;;;4.50;;
60032;SDS011;45905;50.570;10.428;2023-05-25T09:38:16;11.03;;;7.13;;
60032;SDS011;45905;50.570;10.428;2023-05-25T09:40:45;8.50;;;4.60;;
60032;SDS011;45905;50.570;10.428;2023-05-25T09:43:13;5.20;;;3.07;;
60032;SDS011;45905;50.570;10.428;2023-05-25T09:46:01;7.87;;;3.17;;
60032;SDS011;45905;50.570;10.428;2023-05-25T09:48:29;8.60;;;4.50;;
60032;SDS011;45905;50.570;10.428;2023-05-25T09:50:57;10.90;;;4.97;;
60032;SDS011;45905;50.570;10.428;2023-05-25T09:53:25;13.40;;;4.70;;
60032;SDS011;45905;50.570;10.428;2023-05-25T09:55:53;18.50;;;7.43;;
60032;SDS011;45905;50.570;10.428;2023-05-25T09:58:21;18.17;;;5.77;;
60032;SDS011;45905;50.570;10.428;2023-05-25T10:00:52;4.97;;;2.57;;
60032;SDS011;45905;50.570;10.428;2023-05-25T10:03:20;17.47;;;5.40;;
60032;SDS011;45905;50.570;10.428;2023-05-25T10:05:48;22.80;;;7.13;;
60032;SDS011;45905;50.570;10.428;2023-05-25T10:08:18;6.10;;;2.77;;
60032;SDS011;45905;50.570;10.428;2023-05-25T10:10:47;22.13;;;6.30;;
60032;SDS011;45905;50.570;10.428;2023-05-25T10:13:24;8.53;;;3.60;;
60032;SDS011;45905;50.570;10.428;2023-05-25T10:15:55;4.30;;;2.60;;
60032;SDS011;45905;50.570;10.428;2023-05-25T10:18:25;12.90;;;4.40;;
60032;SDS011;45905;50.570;10.428;2023-05-25T10:20:56;12.33;;;5.20;;
60032;SDS011;45905;50.570;10.428;2023-05-25T10:23:31;11.30;;;3.83;;
60032;SDS011;45905;50.570;10.428;2023-05-25T10:26:08;10.53;;;4.40;;
60032;SDS011;45905;50.570;10.428;2023-05-25T10:28:38;6.60;;;3.13;;
60032;SDS011;45905;50.570;10.428;2023-05-25T10:31:08;39.43;;;5.97;;
60032;SDS011;45905;50.570;10.428;2023-05-25T10:33:37;16.50;;;6.27;;
60032;SDS011;45905;50.570;10.428;2023-05-25T10:36:05;8.07;;;2.90;;
60032;SDS011;45905;50.570;10.428;2023-05-25T10:38:38;14.77;;;5.03;;
60032;SDS011;45905;50.570;10.428;2023-05-25T10:41:07;26.93;;;7.13;;
60032;SDS011;45905;50.570;10.428;2023-05-25T10:43:39;10.00;;;3.17;;
60032;SDS011;45905;50.570;10.428;2023-05-25T10:46:07;8.97;;;3.27;;
60032;SDS011;45905;50.570;10.428;2023-05-25T10:48:36;13.90;;;5.70;;
60032;SDS011;45905;50.570;10.428;2023-05-25T10:51:05;10.67;;;4.37;;
60032;SDS011;45905;50.570;10.428;2023-05-25T10:53:36;6.33;;;2.60;;
60032;SDS011;45905;50.570;10.428;2023-05-25T10:56:05;18.33;;;5.87;;
60032;SDS011;45905;50.570;10.428;2023-05-25T10:58:35;13.00;;;3.83;;
60032;SDS011;45905;50.570;10.428;2023-05-25T11:01:12;5.93;;;3.03;;
60032;SDS011;45905;50.570;10.428;2023-05-25T11:09:05;4.40;;;1.70;;
60032;SDS011;45905;50.570;10.428;2023-05-25T11:17:02;2.50;;;2.30;;
60032;SDS011;45905;50.570;10.428;2023-05-25T11:19:42;9.63;;;3.23;;
60032;SDS011;45905;50.570;10.428;2023-05-25T11:22:17;4.90;;;3.53;;
60032;SDS011;45905;50.570;10.428;2023-05-25T11:24:48;3.70;;;2.13;;
60032;SDS011;45905;50.570;10.428;2023-05-25T11:27:23;10.30;;;3.50;;
60032;SDS011;45905;50.570;10.428;2023-05-25T11:29:53;5.87;;;2.53;;
60032;SDS011;45905;50.570;10.428;2023-05-25T11:32:24;9.97;;;4.37;;
60032;SDS011;45905;50.570;10.428;2023-05-25T11:34:54;6.00;;;3.77;;
60032;SDS011;45905;50.570;10.428;2023-05-25T11:37:25;5.03;;;2.63;;
60032;SDS011;45905;50.570;10.428;2023-05-25T11:39:56;4.33;;;1.87;;
60032;SDS011;45905;50.570;10.428;2023-05-25T11:42:24;2.53;;;2.00;;
60032;SDS011;45905;50.570;10.428;2023-05-25T11:44:52;5.43;;;2.43;;
60032;SDS011;45905;50.570;10.428;2023-05-25T11:47:20;6.67;;;2.20;;
60032;SDS011;45905;50.570;10.428;2023-05-25T11:49:50;4.70;;;2.37;;
60032;SDS011;45905;50.570;10.428;2023-05-25T11:52:20;7.23;;;2.10;;
60032;SDS011;45905;50.570;10.428;2023-05-25T11:54:48;11.83;;;4.77;;
60032;SDS011;45905;50.570;10.428;2023-05-25T11:57:22;6.83;;;3.17;;
60032;SDS011;45905;50.570;10.428;2023-05-25T11:59:54;6.70;;;4.17;;
60032;SDS011;45905;50.570;10.428;2023-05-25T12:02:26;10.83;;;4.07;;
60032;SDS011;45905;50.570;10.428;2023-05-25T12:05:02;4.37;;;2.13;;
60032;SDS011;45905;50.570;10.428;2023-05-25T12:07:30;7.07;;;3.03;;
60032;SDS011;45905;50.570;10.428;2023-05-25T12:10:05;12.93;;;5.17;;
60032;SDS011;45905;50.570;10.428;2023-05-25T12:12:50;12.97;;;5.57;;
60032;SDS011;45905;50.570;10.428;2023-05-25T12:15:23;8.73;;;3.73;;
60032;SDS011;45905;50.570;10.428;2023-05-25T12:17:52;15.10;;;5.70;;
60032;SDS011;45905;50.570;10.428;2023-05-25T12:20:20;8.13;;;2.93;;
60032;SDS011;45905;50.570;10.428;2023-05-25T12:22:48;27.23;;;6.83;;
60032;SDS011;45905;50.570;10.428;2023-05-25T12:25:19;35.87;;;7.07;;
60032;SDS011;45905;50.570;10.428;2023-05-25T12:28:09;11.53;;;4.00;;
60032;SDS011;45905;50.570;10.428;2023-05-25T12:30:40;13.37;;;5.03;;
60032;SDS011;45905;50.570;10.428;2023-05-25T12:33:08;5.63;;;2.87;;
60032;SDS011;45905;50.570;10.428;2023-05-25T12:35:47;9.43;;;3.87;;
60032;SDS011;45905;50.570;10.428;2023-05-25T12:38:16;10.50;;;5.40;;
60032;SDS011;45905;50.570;10.428;2023-05-25T12:40:47;5.70;;;3.03;;
60032;SDS011;45905;50.570;10.428;2023-05-25T12:43:37;13.73;;;6.37;;
60032;SDS011;45905;50.570;10.428;2023-05-25T12:46:05;9.27;;;4.37;;
60032;SDS011;45905;50.570;10.428;2023-05-25T12:48:33;3.90;;;2.30;;
60032;SDS011;45905;50.570;10.428;2023-05-25T12:51:01;7.27;;;2.27;;
60032;SDS011;45905;50.570;10.428;2023-05-25T12:53:28;4.23;;;2.07;;
60032;SDS011;45905;50.570;10.428;2023-05-25T12:56:00;4.67;;;2.37;;
60032;SDS011;45905;50.570;10.428;2023-05-25T12:58:29;3.60;;;1.90;;
60032;SDS011;45905;50.570;10.428;2023-05-25T13:00:56;3.70;;;2.40;;
60032;SDS011;45905;50.570;10.428;2023-05-25T13:03:23;6.53;;;2.00;;
60032;SDS011;45905;50.570;10.428;2023-05-25T13:05:50;6.53;;;2.70;;
60032;SDS011;45905;50.570;10.428;2023-05-25T13:08:28;3.37;;;2.37;;
60032;SDS011;45905;50.570;10.428;2023-05-25T13:10:55;8.30;;;2.13;;
60032;SDS011;45905;50.570;10.428;2023-05-25T13:13:22;4.13;;;1.87;;
60032;SDS011;45905;50.570;10.428;2023-05-25T13:15:49;5.83;;;1.60;;
60032;SDS011;45905;50.570;10.428;2023-05-25T13:18:17;7.73;;;2.60;;
60032;SDS011;45905;50.570;10.428;2023-05-25T13:20:44;3.57;;;1.93;;
60032;SDS011;45905;50.570;10.428;2023-05-25T13:23:16;5.67;;;2.20;;
60032;SDS011;45905;50.570;10.428;2023-05-25T13:25:43;1.93;;;1.83;;
60032;SDS011;45905;50.570;10.428;2023-05-25T13:28:12;5.30;;;2.20;;
60032;SDS011;45905;50.570;10.428;2023-05-25T13:30:39;5.03;;;2.27;;
60032;SDS011;45905;50.570;10.428;2023-05-25T13:33:08;2.70;;;1.73;;
60032;SDS011;45905;50.570;10.428;2023-05-25T13:35:36;7.20;;;2.60;;
60032;SDS011;45905;50.570;10.428;2023-05-25T13:38:11;7.60;;;1.80;;
60032;SDS011;45905;50.570;10.428;2023-05-25T13:40:42;6.13;;;2.67;;
60032;SDS011;45905;50.570;10.428;2023-05-25T13:43:10;6.83;;;2.00;;
60032;SDS011;45905;50.570;10.428;2023-05-25T13:45:37;3.03;;;2.07;;
60032;SDS011;45905;50.570;10.428;2023-05-25T13:48:05;6.90;;;2.00;;
60032;SDS011;45905;50.570;10.428;2023-05-25T13:50:32;4.77;;;1.90;;
60032;SDS011;45905;50.570;10.428;2023-05-25T13:52:59;2.93;;;2.07;;
60032;SDS011;45905;50.570;10.428;2023-05-25T13:55:26;5.63;;;2.13;;
60032;SDS011;45905;50.570;10.428;2023-05-25T13:57:53;8.73;;;1.90;;
60032;SDS011;45905;50.570;10.428;2023-05-25T14:00:20;3.17;;;2.40;;
60032;SDS011;45905;50.570;10.428;2023-05-25T14:02:48;4.37;;;2.00;;
60032;SDS011;45905;50.570;10.428;2023-05-25T14:05:15;2.10;;;1.50;;
60032;SDS011;45905;50.570;10.428;2023-05-25T14:07:43;3.43;;;2.23;;
60032;SDS011;45905;50.570;10.428;2023-05-25T14:10:12;6.80;;;2.17;;
60032;SDS011;45905;50.570;10.428;2023-05-25T14:12:40;4.10;;;2.20;;
60032;SDS011;45905;50.570;10.428;2023-05-25T14:15:07;5.00;;;1.77;;
60032;SDS011;45905;50.570;10.428;2023-05-25T14:17:35;2.60;;;1.67;;
60032;SDS011;45905;50.570;10.428;2023-05-25T14:20:02;5.70;;;1.50;;
60032;SDS011;45905;50.570;10.428;2023-05-25T14:22:30;6.30;;;2.00;;
60032;SDS011;45905;50.570;10.428;2023-05-25T14:24:58;3.57;;;1.83;;
60032;SDS011;45905;50.570;10.428;2023-05-25T14:27:25;8.03;;;1.90;;
60032;SDS011;45905;50.570;10.428;2023-05-25T14:29:52;3.10;;;1.73;;
60032;SDS011;45905;50.570;10.428;2023-05-25T14:32:19;2.23;;;1.70;;
60032;SDS011;45905;50.570;10.428;2023-05-25T14:34:46;3.33;;;2.30;;
60032;SDS011;45905;50.570;10.428;2023-05-25T14:37:14;3.17;;;2.27;;
60032;SDS011;45905;50.570;10.428;2023-05-25T14:39:41;6.63;;;2.00;;
60032;SDS011;45905;50.570;10.428;2023-05-25T14:42:08;2.60;;;1.70;;
60032;SDS011;45905;50.570;10.428;2023-05-25T14:44:35;4.73;;;2.40;;
60032;SDS011;45905;50.570;10.428;2023-05-25T14:47:02;3.90;;;1.77;;
60032;SDS011;45905;50.570;10.428;2023-05-25T14:49:30;4.40;;;1.80;;
60032;SDS011;45905;50.570;10.428;2023-05-25T14:51:57;3.93;;;1.80;;
60032;SDS011;45905;50.570;10.428;2023-05-25T14:54:25;5.67;;;2.30;;
60032;SDS011;45905;50.570;10.428;2023-05-25T14:56:52;4.20;;;2.10;;
60032;SDS011;45905;50.570;10.428;2023-05-25T14:59:19;2.00;;;1.80;;
60032;SDS011;45905;50.570;10.428;2023-05-25T15:01:46;3.60;;;1.97;;
60032;SDS011;45905;50.570;10.428;2023-05-25T15:04:13;3.53;;;1.37;;
60032;SDS011;45905;50.570;10.428;2023-05-25T15:06:41;6.77;;;2.37;;
60032;SDS011;45905;50.570;10.428;2023-05-25T15:09:08;4.00;;;2.03;;